Messwerte Pemba

Temperatur

Temperatur
°C
1573916400 17.00 17.00 28
1573920000 18.00 18.00 27
1573923600 19.00 19.00 27
1573927200 20.00 20.00 28
1573930800 21.00 21.00 27
1573934400 22.00 22.00 27
1573938000 23.00 23.00 27
1573941600 0.00 0.00 27
1573945200 1.00 1.00
1573948800 2.00 2.00
1573952400 3.00 3.00 27
1573956000 4.00 4.00 27
1573959600 5.00 5.00 27
1573963200 6.00 6.00 28
1573966800 7.00 7.00 30
1573970400 8.00 8.00 31
1573974000 9.00 9.00 31
1573977600 10.00 10.00 32
1573981200 11.00 11.00 31
1573984800 12.00 12.00 30
1573988400 13.00 13.00 31
1573992000 14.00 14.00
1573995600 15.00 15.00 30
1573999200 16.00 16.00 29

Aktuellste Messwerte

Wettercharakter
Wetter: wechselnd bewölkt
Temperatur
29 °C
Feuchtigkeit
90 %
Wind
25 km/hWindrichtung: Nordost
Böen
45 km/h
Luftdruck
1007 hPa
Messzeit: 17. November 2019, 16.00Datenquelle: METAR

Weitere Messstationen in der Nähe

Messstation Temperatur Entfernung
Nampula 27 °C 271 km
Mtwara 29 °C 304 km
Hahaya / Comoros 32 °C 338 km

Wind

Windrichtung Böen Mittelwind
° km/h km/h
1573916400 17.00 16.00 - 17.00 60° 25
1573920000 18.00 17.00 - 18.00 50° 30
1573923600 19.00 18.00 - 19.00 40° 25
1573927200 20.00 19.00 - 20.00 40° 30
1573930800 21.00 20.00 - 21.00 30° 30
1573934400 22.00 21.00 - 22.00 30° 30
1573938000 23.00 22.00 - 23.00 30° 25
1573941600 0.00 23.00 - 0.00 30° 25
1573945200 1.00 0.00 - 1.00
1573948800 2.00 1.00 - 2.00
1573952400 3.00 2.00 - 3.00 30° 20
1573956000 4.00 3.00 - 4.00 30° 20
1573959600 5.00 4.00 - 5.00 20° 20
1573963200 6.00 5.00 - 6.00 10° 20
1573966800 7.00 6.00 - 7.00 10° 25
1573970400 8.00 7.00 - 8.00 40° 25
1573974000 9.00 8.00 - 9.00 40° 30
1573977600 10.00 9.00 - 10.00 40° 30
1573981200 11.00 10.00 - 11.00 60° 30
1573984800 12.00 11.00 - 12.00 60° 30
1573988400 13.00 12.00 - 13.00 60° 30
1573992000 14.00 13.00 - 14.00
1573995600 15.00 14.00 - 15.00 60° 30
1573999200 16.00 15.00 - 16.00 60° 45 25

Ihre Wetterstation

Fehlt Ihre Wetterstation auf unserem Portal?

Schreiben Sie an network@meteonews.ch